sensor_id;sensor_type;location;lat;lon;timestamp;pressure;altitude;pressure_sealevel;temperature;humidity
20612;BME280;10465;42.686;23.364;2022-12-20T00:00:55;96787.81;;;1.76;72.32
20612;BME280;10465;42.686;23.364;2022-12-20T00:03:21;96784.78;;;1.72;72.13
20612;BME280;10465;42.686;23.364;2022-12-20T00:05:47;96793.22;;;1.81;71.55
20612;BME280;10465;42.686;23.364;2022-12-20T00:08:13;96804.47;;;1.82;71.54
20612;BME280;10465;42.686;23.364;2022-12-20T00:10:41;96789.22;;;1.72;71.35
20612;BME280;10465;42.686;23.364;2022-12-20T00:13:07;96799.03;;;1.70;71.14
20612;BME280;10465;42.686;23.364;2022-12-20T00:15:33;96818.94;;;1.84;70.61
20612;BME280;10465;42.686;23.364;2022-12-20T00:17:59;96827.16;;;1.94;70.71
20612;BME280;10465;42.686;23.364;2022-12-20T00:20:25;96829.78;;;1.94;69.90
20612;BME280;10465;42.686;23.364;2022-12-20T00:22:51;96834.19;;;1.94;69.01
20612;BME280;10465;42.686;23.364;2022-12-20T00:25:17;96825.38;;;1.88;69.05
20612;BME280;10465;42.686;23.364;2022-12-20T00:27:44;96818.34;;;1.76;69.58
20612;BME280;10465;42.686;23.364;2022-12-20T00:30:10;96832.81;;;1.91;69.83
20612;BME280;10465;42.686;23.364;2022-12-20T00:32:35;96815.75;;;1.76;69.35
20612;BME280;10465;42.686;23.364;2022-12-20T00:35:01;96809.72;;;1.75;69.14
20612;BME280;10465;42.686;23.364;2022-12-20T00:37:26;96835.00;;;1.94;68.44
20612;BME280;10465;42.686;23.364;2022-12-20T00:39:52;96808.50;;;1.78;68.08
20612;BME280;10465;42.686;23.364;2022-12-20T00:42:17;96803.06;;;1.72;67.81
20612;BME280;10465;42.686;23.364;2022-12-20T00:44:43;96824.75;;;1.86;67.99
20612;BME280;10465;42.686;23.364;2022-12-20T00:47:08;96820.94;;;1.89;67.79
20612;BME280;10465;42.686;23.364;2022-12-20T00:49:34;96804.47;;;1.82;67.69
20612;BME280;10465;42.686;23.364;2022-12-20T00:51:59;96798.06;;;1.71;67.84
20612;BME280;10465;42.686;23.364;2022-12-20T00:54:25;96805.28;;;1.76;68.04
20612;BME280;10465;42.686;23.364;2022-12-20T00:56:50;96802.28;;;1.79;67.66
20612;BME280;10465;42.686;23.364;2022-12-20T00:59:16;96824.56;;;1.81;67.36
20612;BME280;10465;42.686;23.364;2022-12-20T01:01:41;96824.97;;;1.78;67.10
20612;BME280;10465;42.686;23.364;2022-12-20T01:04:07;96829.19;;;1.86;67.29
20612;BME280;10465;42.686;23.364;2022-12-20T01:06:32;96817.31;;;1.70;67.06
20612;BME280;10465;42.686;23.364;2022-12-20T01:08:58;96832.00;;;1.84;66.79
20612;BME280;10465;42.686;23.364;2022-12-20T01:11:29;96822.75;;;1.82;67.12
20612;BME280;10465;42.686;23.364;2022-12-20T01:13:58;96805.50;;;1.67;67.32
20612;BME280;10465;42.686;23.364;2022-12-20T01:16:29;96819.34;;;1.75;66.77
20612;BME280;10465;42.686;23.364;2022-12-20T01:18:56;96817.94;;;1.79;66.58
20612;BME280;10465;42.686;23.364;2022-12-20T01:21:23;96812.13;;;1.77;67.01
20612;BME280;10465;42.686;23.364;2022-12-20T01:23:48;96812.50;;;1.73;67.09
20612;BME280;10465;42.686;23.364;2022-12-20T01:26:17;96809.91;;;1.73;67.08
20612;BME280;10465;42.686;23.364;2022-12-20T01:28:44;96808.69;;;1.69;66.98
20612;BME280;10465;42.686;23.364;2022-12-20T01:31:15;96799.84;;;1.77;66.52
20612;BME280;10465;42.686;23.364;2022-12-20T01:33:42;96795.44;;;1.71;66.29
20612;BME280;10465;42.686;23.364;2022-12-20T01:36:11;96789.44;;;1.70;66.01
20612;BME280;10465;42.686;23.364;2022-12-20T01:38:37;96799.66;;;1.65;66.10
20612;BME280;10465;42.686;23.364;2022-12-20T01:41:03;96797.25;;;1.57;66.51
20612;BME280;10465;42.686;23.364;2022-12-20T01:46:12;96797.81;;;1.33;66.79
20612;BME280;10465;42.686;23.364;2022-12-20T01:48:39;96775.75;;;1.29;67.16
20612;BME280;10465;42.686;23.364;2022-12-20T01:51:05;96770.72;;;1.20;67.59
20612;BME280;10465;42.686;23.364;2022-12-20T01:53:31;96765.47;;;1.07;68.02
20612;BME280;10465;42.686;23.364;2022-12-20T01:55:59;96789.41;;;1.31;67.46
20612;BME280;10465;42.686;23.364;2022-12-20T01:58:27;96742.41;;;1.11;67.46
20612;BME280;10465;42.686;23.364;2022-12-20T02:00:52;96774.16;;;1.34;67.46
20612;BME280;10465;42.686;23.364;2022-12-20T02:03:18;96759.28;;;1.28;67.44
20612;BME280;10465;42.686;23.364;2022-12-20T02:05:44;96751.63;;;1.13;67.37
20612;BME280;10465;42.686;23.364;2022-12-20T02:08:16;96737.38;;;1.09;67.47
20612;BME280;10465;42.686;23.364;2022-12-20T02:16:27;96743.03;;;1.19;67.14
20612;BME280;10465;42.686;23.364;2022-12-20T02:21:54;96769.53;;;1.23;67.15
20612;BME280;10465;42.686;23.364;2022-12-20T02:30:20;96764.91;;;1.25;67.29
20612;BME280;10465;42.686;23.364;2022-12-20T02:33:02;96749.84;;;1.20;66.86
20612;BME280;10465;42.686;23.364;2022-12-20T02:35:35;96771.31;;;1.29;66.84
20612;BME280;10465;42.686;23.364;2022-12-20T02:38:04;96768.13;;;1.27;66.46
20612;BME280;10465;42.686;23.364;2022-12-20T02:40:40;96743.44;;;1.10;66.61
20612;BME280;10465;42.686;23.364;2022-12-20T02:43:09;96759.06;;;1.30;66.40
20612;BME280;10465;42.686;23.364;2022-12-20T02:45:54;96757.09;;;1.32;66.33
20612;BME280;10465;42.686;23.364;2022-12-20T02:48:24;96739.59;;;1.26;66.39
20612;BME280;10465;42.686;23.364;2022-12-20T02:50:53;96739.59;;;1.26;66.71
20612;BME280;10465;42.686;23.364;2022-12-20T02:53:21;96756.69;;;1.48;66.67
20612;BME280;10465;42.686;23.364;2022-12-20T02:55:53;96729.97;;;1.33;67.03
20612;BME280;10465;42.686;23.364;2022-12-20T02:58:32;96729.97;;;1.33;67.34
20612;BME280;10465;42.686;23.364;2022-12-20T03:01:03;96752.28;;;1.42;67.59
20612;BME280;10465;42.686;23.364;2022-12-20T03:03:34;96750.25;;;1.44;67.63
20612;BME280;10465;42.686;23.364;2022-12-20T03:06:00;96744.25;;;1.43;67.85
20612;BME280;10465;42.686;23.364;2022-12-20T03:08:26;96734.00;;;1.35;67.54
20612;BME280;10465;42.686;23.364;2022-12-20T03:10:53;96745.25;;;1.42;67.33
20612;BME280;10465;42.686;23.364;2022-12-20T03:13:20;96735.00;;;1.34;67.48
20612;BME280;10465;42.686;23.364;2022-12-20T03:15:45;96742.84;;;1.34;67.60
20612;BME280;10465;42.686;23.364;2022-12-20T03:18:11;96743.63;;;1.28;68.08
20612;BME280;10465;42.686;23.364;2022-12-20T03:20:37;96736.59;;;1.29;67.95
20612;BME280;10465;42.686;23.364;2022-12-20T03:23:02;96739.03;;;1.30;67.84
20612;BME280;10465;42.686;23.364;2022-12-20T03:25:28;96736.00;;;1.27;67.99
20612;BME280;10465;42.686;23.364;2022-12-20T03:27:54;96736.22;;;1.18;68.18
20612;BME280;10465;42.686;23.364;2022-12-20T03:30:19;96724.75;;;1.13;67.82
20612;BME280;10465;42.686;23.364;2022-12-20T03:32:45;96684.78;;;0.72;68.13
20612;BME280;10465;42.686;23.364;2022-12-20T03:35:10;96693.41;;;0.73;68.30
20612;BME280;10465;42.686;23.364;2022-12-20T03:37:36;96717.47;;;0.75;68.54
20612;BME280;10465;42.686;23.364;2022-12-20T03:40:02;96717.88;;;0.65;68.89
20612;BME280;10465;42.686;23.364;2022-12-20T03:42:27;96724.50;;;0.74;69.55
20612;BME280;10465;42.686;23.364;2022-12-20T03:44:53;96733.75;;;0.77;68.94
20612;BME280;10465;42.686;23.364;2022-12-20T03:47:18;96688.75;;;0.55;69.10
20612;BME280;10465;42.686;23.364;2022-12-20T03:49:43;96736.94;;;0.79;68.99
20612;BME280;10465;42.686;23.364;2022-12-20T03:52:13;96727.94;;;0.82;68.47
20612;BME280;10465;42.686;23.364;2022-12-20T03:54:40;96724.50;;;0.74;68.81
20612;BME280;10465;42.686;23.364;2022-12-20T03:57:06;96702.78;;;0.54;68.89
20612;BME280;10465;42.686;23.364;2022-12-20T03:59:31;96675.47;;;0.43;68.83
20612;BME280;10465;42.686;23.364;2022-12-20T04:01:57;96713.44;;;0.72;68.81
20612;BME280;10465;42.686;23.364;2022-12-20T04:04:22;96720.09;;;0.75;68.63
20612;BME280;10465;42.686;23.364;2022-12-20T04:06:48;96701.56;;;0.50;69.07
20612;BME280;10465;42.686;23.364;2022-12-20T04:09:14;96714.22;;;0.60;69.01
20612;BME280;10465;42.686;23.364;2022-12-20T04:11:39;96717.44;;;0.62;69.41
20612;BME280;10465;42.686;23.364;2022-12-20T04:14:05;96711.44;;;0.61;69.42
20612;BME280;10465;42.686;23.364;2022-12-20T04:16:31;96720.28;;;0.73;69.00
20612;BME280;10465;42.686;23.364;2022-12-20T04:18:57;96718.28;;;0.76;68.91
20612;BME280;10465;42.686;23.364;2022-12-20T04:21:27;96715.06;;;0.73;68.43
20612;BME280;10465;42.686;23.364;2022-12-20T04:23:53;96714.47;;;0.71;68.68
20612;BME280;10465;42.686;23.364;2022-12-20T04:26:18;96706.22;;;0.61;69.06
20612;BME280;10465;42.686;23.364;2022-12-20T04:28:44;96669.50;;;0.49;68.46
20612;BME280;10465;42.686;23.364;2022-12-20T04:31:10;96710.84;;;0.72;68.40
20612;BME280;10465;42.686;23.364;2022-12-20T04:33:36;96709.22;;;0.65;68.67
20612;BME280;10465;42.686;23.364;2022-12-20T04:36:02;96668.88;;;0.41;68.66
20612;BME280;10465;42.686;23.364;2022-12-20T04:38:27;96703.81;;;0.66;68.54
20612;BME280;10465;42.686;23.364;2022-12-20T04:40:53;96716.06;;;0.66;68.57
20612;BME280;10465;42.686;23.364;2022-12-20T04:43:20;96708.25;;;0.66;68.64
20612;BME280;10465;42.686;23.364;2022-12-20T04:45:48;96713.06;;;0.76;68.43
20612;BME280;10465;42.686;23.364;2022-12-20T04:48:15;96708.06;;;0.81;67.99
20612;BME280;10465;42.686;23.364;2022-12-20T04:50:41;96706.66;;;0.85;67.81
20612;BME280;10465;42.686;23.364;2022-12-20T04:53:09;96691.41;;;0.75;67.63
20612;BME280;10465;42.686;23.364;2022-12-20T04:55:54;96695.59;;;0.63;67.96
20612;BME280;10465;42.686;23.364;2022-12-20T04:58:19;96632.56;;;0.26;67.60
20612;BME280;10465;42.686;23.364;2022-12-20T05:00:44;96674.72;;;0.49;67.84
20612;BME280;10465;42.686;23.364;2022-12-20T05:03:10;96707.41;;;0.59;68.06
20612;BME280;10465;42.686;23.364;2022-12-20T05:05:35;96679.88;;;0.36;68.52
20612;BME280;10465;42.686;23.364;2022-12-20T05:08:01;96683.47;;;0.35;68.54
20612;BME280;10465;42.686;23.364;2022-12-20T05:10:26;96702.94;;;0.39;68.49
20612;BME280;10465;42.686;23.364;2022-12-20T05:12:52;96680.63;;;0.23;68.73
20612;BME280;10465;42.686;23.364;2022-12-20T05:15:17;96704.94;;;0.37;68.55
20612;BME280;10465;42.686;23.364;2022-12-20T05:17:43;96680.88;;;0.29;68.75
20612;BME280;10465;42.686;23.364;2022-12-20T05:20:09;96700.53;;;0.38;68.82
20612;BME280;10465;42.686;23.364;2022-12-20T05:22:34;96696.28;;;0.30;68.34
20612;BME280;10465;42.686;23.364;2022-12-20T05:25:19;96677.44;;;0.21;68.52
20612;BME280;10465;42.686;23.364;2022-12-20T05:28:22;96707.94;;;0.34;68.80
20612;BME280;10465;42.686;23.364;2022-12-20T05:30:48;96698.09;;;0.30;68.60
20612;BME280;10465;42.686;23.364;2022-12-20T05:33:13;96697.47;;;0.28;68.87
20612;BME280;10465;42.686;23.364;2022-12-20T05:35:39;96679.19;;;0.14;69.03
20612;BME280;10465;42.686;23.364;2022-12-20T05:38:04;96653.50;;;-0.02;68.59
20612;BME280;10465;42.686;23.364;2022-12-20T05:40:30;96693.41;;;0.12;69.23
20612;BME280;10465;42.686;23.364;2022-12-20T05:42:55;96681.38;;;0.11;69.09
20612;BME280;10465;42.686;23.364;2022-12-20T05:45:21;96687.97;;;0.07;69.23
20612;BME280;10465;42.686;23.364;2022-12-20T05:47:46;96699.03;;;0.15;69.37
20612;BME280;10465;42.686;23.364;2022-12-20T05:50:11;96710.28;;;0.22;69.44
20612;BME280;10465;42.686;23.364;2022-12-20T05:52:37;96713.69;;;0.23;69.56
20612;BME280;10465;42.686;23.364;2022-12-20T05:55:03;96717.31;;;0.22;69.49
20612;BME280;10465;42.686;23.364;2022-12-20T05:57:28;96683.91;;;-0.09;69.64
20612;BME280;10465;42.686;23.364;2022-12-20T05:59:54;96684.69;;;-0.09;69.77
20612;BME280;10465;42.686;23.364;2022-12-20T06:02:19;96700.41;;;0.05;69.78
20612;BME280;10465;42.686;23.364;2022-12-20T06:04:45;96718.31;;;0.21;69.83
20612;BME280;10465;42.686;23.364;2022-12-20T06:07:10;96715.66;;;0.14;69.65
20612;BME280;10465;42.686;23.364;2022-12-20T06:09:36;96719.69;;;0.23;69.71
20612;BME280;10465;42.686;23.364;2022-12-20T06:12:01;96706.63;;;0.10;69.43
20612;BME280;10465;42.686;23.364;2022-12-20T06:14:27;96699.81;;;0.09;69.62
20612;BME280;10465;42.686;23.364;2022-12-20T06:16:52;96716.13;;;0.31;69.38
20612;BME280;10465;42.686;23.364;2022-12-20T06:19:17;96702.09;;;0.26;69.34
20612;BME280;10465;42.686;23.364;2022-12-20T06:21:43;96693.66;;;0.17;69.04
20612;BME280;10465;42.686;23.364;2022-12-20T06:24:09;96683.22;;;0.23;69.14
20612;BME280;10465;42.686;23.364;2022-12-20T06:26:34;96712.00;;;0.50;68.25
20612;BME280;10465;42.686;23.364;2022-12-20T06:29:04;96688.09;;;0.40;67.82
20612;BME280;10465;42.686;23.364;2022-12-20T06:31:34;96724.66;;;0.60;67.86
20612;BME280;10465;42.686;23.364;2022-12-20T06:34:00;96685.31;;;0.41;67.81
20612;BME280;10465;42.686;23.364;2022-12-20T06:36:25;96710.44;;;0.62;67.11
20612;BME280;10465;42.686;23.364;2022-12-20T06:38:51;96701.00;;;0.61;67.33
20612;BME280;10465;42.686;23.364;2022-12-20T06:41:16;96691.56;;;0.60;67.22
20612;BME280;10465;42.686;23.364;2022-12-20T06:43:42;96720.50;;;0.79;67.09
20612;BME280;10465;42.686;23.364;2022-12-20T06:46:07;96716.22;;;0.64;67.12
20612;BME280;10465;42.686;23.364;2022-12-20T06:48:33;96711.66;;;0.80;67.09
20612;BME280;10465;42.686;23.364;2022-12-20T06:50:58;96700.25;;;0.87;66.64
20612;BME280;10465;42.686;23.364;2022-12-20T06:53:24;96695.47;;;0.97;66.41
20612;BME280;10465;42.686;23.364;2022-12-20T06:55:50;96702.88;;;1.07;65.83
20612;BME280;10465;42.686;23.364;2022-12-20T06:58:16;96709.50;;;1.23;65.58
20612;BME280;10465;42.686;23.364;2022-12-20T07:00:42;96674.41;;;1.19;64.77
20612;BME280;10465;42.686;23.364;2022-12-20T07:03:07;96685.44;;;1.34;63.95
20612;BME280;10465;42.686;23.364;2022-12-20T07:05:33;96679.19;;;1.48;63.58
20612;BME280;10465;42.686;23.364;2022-12-20T07:07:59;96698.41;;;1.81;63.16
20612;BME280;10465;42.686;23.364;2022-12-20T07:10:24;96687.34;;;1.98;62.50
20612;BME280;10465;42.686;23.364;2022-12-20T07:12:51;96688.41;;;2.36;60.72
20612;BME280;10465;42.686;23.364;2022-12-20T07:15:16;96667.94;;;2.64;58.68
20612;BME280;10465;42.686;23.364;2022-12-20T07:17:42;96688.66;;;3.91;55.42
20612;BME280;10465;42.686;23.364;2022-12-20T07:20:08;96668.81;;;5.81;48.96
20612;BME280;10465;42.686;23.364;2022-12-20T07:22:33;96664.59;;;6.32;46.34
20612;BME280;10465;42.686;23.364;2022-12-20T07:24:59;96627.81;;;5.56;47.00
20612;BME280;10465;42.686;23.364;2022-12-20T07:27:24;96684.47;;;6.97;45.64
20612;BME280;10465;42.686;23.364;2022-12-20T07:29:50;96687.91;;;9.13;40.56
20612;BME280;10465;42.686;23.364;2022-12-20T07:32:16;96668.72;;;10.65;36.39
20612;BME280;10465;42.686;23.364;2022-12-20T07:34:41;96691.56;;;9.76;37.46
20612;BME280;10465;42.686;23.364;2022-12-20T07:37:07;96682.28;;;8.11;40.24
20612;BME280;10465;42.686;23.364;2022-12-20T07:39:35;96682.75;;;6.57;43.01
20612;BME280;10465;42.686;23.364;2022-12-20T07:42:00;96690.41;;;5.48;45.98
20612;BME280;10465;42.686;23.364;2022-12-20T07:44:26;96679.38;;;4.74;49.33
20612;BME280;10465;42.686;23.364;2022-12-20T07:46:52;96678.53;;;4.31;50.97
20612;BME280;10465;42.686;23.364;2022-12-20T07:49:17;96678.19;;;4.09;52.23
20612;BME280;10465;42.686;23.364;2022-12-20T07:51:49;96657.22;;;3.91;51.98
20612;BME280;10465;42.686;23.364;2022-12-20T07:54:25;96687.34;;;3.82;53.06
20612;BME280;10465;42.686;23.364;2022-12-20T07:56:56;96676.22;;;3.86;52.85
20612;BME280;10465;42.686;23.364;2022-12-20T07:59:50;96651.16;;;3.72;52.97
20612;BME280;10465;42.686;23.364;2022-12-20T08:02:20;96658.03;;;3.73;51.97
20612;BME280;10465;42.686;23.364;2022-12-20T08:04:47;96664.63;;;3.76;51.75
20612;BME280;10465;42.686;23.364;2022-12-20T08:07:14;96659.91;;;3.66;52.06
20612;BME280;10465;42.686;23.364;2022-12-20T08:09:42;96649.34;;;3.72;52.21
20612;BME280;10465;42.686;23.364;2022-12-20T08:12:09;96619.31;;;3.57;52.05
20612;BME280;10465;42.686;23.364;2022-12-20T08:14:37;96655.25;;;3.86;52.18
20612;BME280;10465;42.686;23.364;2022-12-20T08:17:02;96667.72;;;4.09;51.93
20612;BME280;10465;42.686;23.364;2022-12-20T08:19:28;96664.69;;;4.24;51.19
20612;BME280;10465;42.686;23.364;2022-12-20T08:21:53;96662.72;;;4.38;52.01
20612;BME280;10465;42.686;23.364;2022-12-20T08:24:19;96658.81;;;4.59;50.32
20612;BME280;10465;42.686;23.364;2022-12-20T08:26:44;96669.59;;;4.81;50.27
20612;BME280;10465;42.686;23.364;2022-12-20T08:29:10;96642.91;;;4.84;48.90
20612;BME280;10465;42.686;23.364;2022-12-20T08:31:39;96634.38;;;4.88;49.07
20612;BME280;10465;42.686;23.364;2022-12-20T08:34:08;96657.25;;;5.23;48.34
20612;BME280;10465;42.686;23.364;2022-12-20T08:36:34;96657.47;;;5.21;46.99
20612;BME280;10465;42.686;23.364;2022-12-20T08:39:04;96643.44;;;5.16;47.33
20612;BME280;10465;42.686;23.364;2022-12-20T08:41:29;96635.66;;;5.21;45.97
20612;BME280;10465;42.686;23.364;2022-12-20T08:43:55;96633.97;;;5.50;46.13
20612;BME280;10465;42.686;23.364;2022-12-20T08:46:20;96632.91;;;5.75;46.30
20612;BME280;10465;42.686;23.364;2022-12-20T08:48:46;96651.88;;;6.12;45.49
20612;BME280;10465;42.686;23.364;2022-12-20T08:51:11;96631.44;;;6.31;44.69
20612;BME280;10465;42.686;23.364;2022-12-20T08:53:37;96619.34;;;6.58;43.60
20612;BME280;10465;42.686;23.364;2022-12-20T08:58:29;96637.75;;;7.21;43.66
20612;BME280;10465;42.686;23.364;2022-12-20T09:00:57;96633.25;;;7.55;42.44
20612;BME280;10465;42.686;23.364;2022-12-20T09:03:25;96579.94;;;7.69;42.54
20612;BME280;10465;42.686;23.364;2022-12-20T09:05:50;96622.84;;;8.04;41.13
20612;BME280;10465;42.686;23.364;2022-12-20T09:08:16;96627.38;;;7.86;40.20
20612;BME280;10465;42.686;23.364;2022-12-20T09:10:42;96623.75;;;7.92;39.96
20612;BME280;10465;42.686;23.364;2022-12-20T09:13:07;96616.94;;;7.97;38.94
20612;BME280;10465;42.686;23.364;2022-12-20T09:15:34;96590.34;;;7.98;39.62
20612;BME280;10465;42.686;23.364;2022-12-20T09:18:00;96620.56;;;8.12;39.19
20612;BME280;10465;42.686;23.364;2022-12-20T09:20:26;96612.53;;;8.24;39.17
20612;BME280;10465;42.686;23.364;2022-12-20T09:22:51;96593.50;;;8.44;37.47
20612;BME280;10465;42.686;23.364;2022-12-20T09:25:17;96590.88;;;8.44;37.50
20612;BME280;10465;42.686;23.364;2022-12-20T09:27:42;96531.22;;;8.21;37.30
20612;BME280;10465;42.686;23.364;2022-12-20T09:30:08;96592.81;;;8.54;37.31
20612;BME280;10465;42.686;23.364;2022-12-20T09:32:34;96600.63;;;8.71;37.06
20612;BME280;10465;42.686;23.364;2022-12-20T09:34:59;96556.56;;;8.44;36.20
20612;BME280;10465;42.686;23.364;2022-12-20T09:37:24;96538.03;;;8.39;36.28
20612;BME280;10465;42.686;23.364;2022-12-20T09:39:50;96580.88;;;8.78;36.76
20612;BME280;10465;42.686;23.364;2022-12-20T09:42:24;96572.34;;;8.98;36.56
20612;BME280;10465;42.686;23.364;2022-12-20T09:44:50;96580.13;;;9.15;36.52
20612;BME280;10465;42.686;23.364;2022-12-20T09:47:19;96566.59;;;9.11;35.44
20612;BME280;10465;42.686;23.364;2022-12-20T09:49:49;96573.06;;;8.88;35.73
20612;BME280;10465;42.686;23.364;2022-12-20T10:00:28;96555.97;;;9.38;35.20
20612;BME280;10465;42.686;23.364;2022-12-20T10:02:54;96565.22;;;9.36;34.03
20612;BME280;10465;42.686;23.364;2022-12-20T10:11:03;96508.94;;;9.40;34.66
20612;BME280;10465;42.686;23.364;2022-12-20T10:16:43;96521.63;;;10.01;32.66
20612;BME280;10465;42.686;23.364;2022-12-20T10:19:39;96515.47;;;9.80;33.33
20612;BME280;10465;42.686;23.364;2022-12-20T10:22:16;96507.19;;;9.66;33.75
20612;BME280;10465;42.686;23.364;2022-12-20T10:24:49;96494.31;;;9.85;33.59
20612;BME280;10465;42.686;23.364;2022-12-20T10:27:19;96499.59;;;9.80;33.49
20612;BME280;10465;42.686;23.364;2022-12-20T10:29:47;96466.47;;;9.62;33.59
20612;BME280;10465;42.686;23.364;2022-12-20T10:32:20;96447.66;;;9.49;33.43
20612;BME280;10465;42.686;23.364;2022-12-20T10:37:56;96437.56;;;9.40;33.82
20612;BME280;10465;42.686;23.364;2022-12-20T10:40:41;96442.00;;;9.25;34.48
20612;BME280;10465;42.686;23.364;2022-12-20T10:43:17;96399.69;;;8.67;34.85
20612;BME280;10465;42.686;23.364;2022-12-20T10:45:45;96457.56;;;8.79;35.96
20612;BME280;10465;42.686;23.364;2022-12-20T10:48:32;96452.19;;;8.63;36.92
20612;BME280;10465;42.686;23.364;2022-12-20T10:53:33;96436.56;;;8.99;35.62
20612;BME280;10465;42.686;23.364;2022-12-20T10:56:14;96433.81;;;9.26;34.63
20612;BME280;10465;42.686;23.364;2022-12-20T10:58:42;96438.34;;;9.36;35.38
20612;BME280;10465;42.686;23.364;2022-12-20T11:01:14;96419.28;;;9.29;34.70
20612;BME280;10465;42.686;23.364;2022-12-20T11:04:00;96430.44;;;9.36;34.71
20612;BME280;10465;42.686;23.364;2022-12-20T11:06:49;96423.63;;;9.60;34.82
20612;BME280;10465;42.686;23.364;2022-12-20T11:09:32;96405.06;;;9.40;33.42
20612;BME280;10465;42.686;23.364;2022-12-20T11:12:12;96409.00;;;9.37;34.97
20612;BME280;10465;42.686;23.364;2022-12-20T11:14:38;96384.66;;;9.35;34.99
20612;BME280;10465;42.686;23.364;2022-12-20T11:20:06;96405.88;;;9.56;33.91
20612;BME280;10465;42.686;23.364;2022-12-20T11:25:51;96396.06;;;9.36;34.15
20612;BME280;10465;42.686;23.364;2022-12-20T11:31:31;96383.38;;;9.33;33.56
20612;BME280;10465;42.686;23.364;2022-12-20T11:45:26;96378.78;;;10.27;31.86
20612;BME280;10465;42.686;23.364;2022-12-20T11:56:37;96358.69;;;11.26;30.04
20612;BME280;10465;42.686;23.364;2022-12-20T11:59:09;96349.44;;;11.19;29.33
20612;BME280;10465;42.686;23.364;2022-12-20T12:01:41;96353.59;;;11.35;29.79
20612;BME280;10465;42.686;23.364;2022-12-20T12:06:43;96342.53;;;11.23;29.83
20612;BME280;10465;42.686;23.364;2022-12-20T12:12:01;96342.63;;;10.92;29.98
20612;BME280;10465;42.686;23.364;2022-12-20T12:14:34;96342.72;;;10.61;30.35
20612;BME280;10465;42.686;23.364;2022-12-20T12:17:10;96299.84;;;10.44;30.29
20612;BME280;10465;42.686;23.364;2022-12-20T12:19:42;96334.97;;;10.80;30.58
20612;BME280;10465;42.686;23.364;2022-12-20T12:22:19;96344.81;;;11.39;30.01
20612;BME280;10465;42.686;23.364;2022-12-20T12:24:51;96336.94;;;11.24;29.88
20612;BME280;10465;42.686;23.364;2022-12-20T12:27:25;96334.22;;;10.75;29.83
20612;BME280;10465;42.686;23.364;2022-12-20T12:29:52;96338.53;;;10.14;31.09
20612;BME280;10465;42.686;23.364;2022-12-20T12:34:59;96328.72;;;9.69;31.68
20612;BME280;10465;42.686;23.364;2022-12-20T12:45:42;96331.44;;;8.96;32.10
20612;BME280;10465;42.686;23.364;2022-12-20T12:50:53;96330.00;;;8.73;32.71
20612;BME280;10465;42.686;23.364;2022-12-20T12:53:41;96333.44;;;8.74;32.78
20612;BME280;10465;42.686;23.364;2022-12-20T13:01:49;96320.09;;;8.43;33.37
20612;BME280;10465;42.686;23.364;2022-12-20T13:11:54;96316.06;;;7.98;34.40
20612;BME280;10465;42.686;23.364;2022-12-20T13:19:37;96299.41;;;7.60;34.30
20612;BME280;10465;42.686;23.364;2022-12-20T13:27:39;96307.53;;;7.27;34.89
20612;BME280;10465;42.686;23.364;2022-12-20T13:32:55;96303.38;;;7.09;35.27
20612;BME280;10465;42.686;23.364;2022-12-20T13:38:02;96302.66;;;6.91;35.31
20612;BME280;10465;42.686;23.364;2022-12-20T13:40:56;96296.41;;;6.76;36.26
20612;BME280;10465;42.686;23.364;2022-12-20T13:48:48;96296.53;;;6.64;36.42
20612;BME280;10465;42.686;23.364;2022-12-20T13:51:21;96299.59;;;6.56;36.90
20612;BME280;10465;42.686;23.364;2022-12-20T13:58:56;96288.50;;;6.32;37.45
20612;BME280;10465;42.686;23.364;2022-12-20T14:01:23;96293.06;;;6.36;37.25
20612;BME280;10465;42.686;23.364;2022-12-20T14:03:51;96282.63;;;6.25;36.88
20612;BME280;10465;42.686;23.364;2022-12-20T14:06:18;96262.31;;;6.03;36.45
20612;BME280;10465;42.686;23.364;2022-12-20T14:08:50;96278.41;;;6.07;36.47
20612;BME280;10465;42.686;23.364;2022-12-20T14:11:36;96213.03;;;5.26;36.62
20612;BME280;10465;42.686;23.364;2022-12-20T14:14:11;96281.03;;;5.56;37.57
20612;BME280;10465;42.686;23.364;2022-12-20T14:16:38;96269.97;;;5.71;37.50
20612;BME280;10465;42.686;23.364;2022-12-20T14:19:12;96267.13;;;5.73;37.89
20612;BME280;10465;42.686;23.364;2022-12-20T14:21:41;96255.88;;;5.60;38.01
20612;BME280;10465;42.686;23.364;2022-12-20T14:24:14;96255.31;;;5.58;37.85
20612;BME280;10465;42.686;23.364;2022-12-20T14:26:44;96255.00;;;5.55;38.07
20612;BME280;10465;42.686;23.364;2022-12-20T14:29:17;96270.84;;;5.77;38.65
20612;BME280;10465;42.686;23.364;2022-12-20T14:31:45;96266.41;;;5.77;38.21
20612;BME280;10465;42.686;23.364;2022-12-20T14:34:17;96269.69;;;5.67;38.86
20612;BME280;10465;42.686;23.364;2022-12-20T14:36:49;96273.63;;;5.53;38.42
20612;BME280;10465;42.686;23.364;2022-12-20T14:42:00;96166.75;;;4.58;39.47
20612;BME280;10465;42.686;23.364;2022-12-20T14:44:30;96237.34;;;4.88;39.95
20612;BME280;10465;42.686;23.364;2022-12-20T14:46:57;96260.38;;;5.14;39.98
20612;BME280;10465;42.686;23.364;2022-12-20T14:49:27;96250.50;;;5.05;40.08
20612;BME280;10465;42.686;23.364;2022-12-20T14:54:32;96223.50;;;4.92;40.06
20612;BME280;10465;42.686;23.364;2022-12-20T14:56:58;96254.91;;;5.16;40.19
20612;BME280;10465;42.686;23.364;2022-12-20T14:59:26;96235.31;;;5.07;41.24
20612;BME280;10465;42.686;23.364;2022-12-20T15:01:52;96251.31;;;5.22;41.15
20612;BME280;10465;42.686;23.364;2022-12-20T15:04:30;96251.94;;;5.12;42.21
20612;BME280;10465;42.686;23.364;2022-12-20T15:06:57;96256.63;;;5.10;42.67
20612;BME280;10465;42.686;23.364;2022-12-20T15:09:23;96245.50;;;5.03;42.79
20612;BME280;10465;42.686;23.364;2022-12-20T15:11:49;96220.56;;;4.89;42.88
20612;BME280;10465;42.686;23.364;2022-12-20T15:16:51;96237.50;;;4.98;43.33
20612;BME280;10465;42.686;23.364;2022-12-20T15:19:17;96215.22;;;4.84;43.69
20612;BME280;10465;42.686;23.364;2022-12-20T15:21:43;96253.25;;;4.98;45.67
20612;BME280;10465;42.686;23.364;2022-12-20T15:24:15;96248.94;;;4.92;44.72